Time;durP1;ratioP1;P1;durP2;ratioP2;P2;SDS_P1;SDS_P2;PMS_P1;PMS_P2;Temp;Humidity;BMP_temperature;BMP_pressure;BME280_temperature;BME280_humidity;BME280_pressure;Samples;Min_cycle;Max_cycle;Signal;HPM_P1;HPM_P2
2023/07/30 00:02:21;;;;;;;4.22;3.60;;;;;;;21.26;58.97;94721.53;5115618;28;20230;-66
2023/07/30 00:04:49;;;;;;;4.13;3.72;;;;;;;21.23;58.91;94716.00;5115037;28;20191;-66
2023/07/30 00:07:17;;;;;;;5.25;4.30;;;;;;;21.21;58.78;94718.47;5114833;28;20546;-66
2023/07/30 00:09:45;;;;;;;7.03;6.43;;;;;;;21.15;59.37;94713.34;5114887;28;20219;-66
2023/07/30 00:12:13;;;;;;;7.03;6.32;;;;;;;21.14;59.38;94713.78;5115842;28;20180;-66
2023/07/30 00:14:41;;;;;;;6.13;5.10;;;;;;;21.15;59.38;94716.13;5114603;28;20199;-66
2023/07/30 00:17:47;;;;;;;7.57;4.85;;;;;;;21.12;59.02;94710.59;5114669;28;20203;-66
2023/07/30 00:20:52;;;;;;;6.60;4.25;;;;;;;21.09;59.32;94711.44;5097714;28;20239;-66
2023/07/30 00:23:58;;;;;;;6.60;5.13;;;;;;;21.04;59.33;94714.75;5115068;28;20569;-66
2023/07/30 00:27:03;;;;;;;6.30;4.97;;;;;;;21.03;58.78;94711.19;5115301;28;20203;-66
2023/07/30 00:30:09;;;;;;;7.10;5.13;;;;;;;21.03;59.11;94701.97;5097317;28;20219;-66
2023/07/30 00:33:15;;;;;;;6.57;5.38;;;;;;;20.98;59.28;94696.84;5114569;28;20203;-66
2023/07/30 00:36:20;;;;;;;6.35;5.43;;;;;;;20.94;59.30;94696.91;5114639;28;20214;-66
2023/07/30 00:39:24;;;;;;;5.72;4.88;;;;;;;20.96;59.04;94691.69;5116369;28;20191;-66
2023/07/30 00:42:29;;;;;;;5.20;4.70;;;;;;;20.91;59.29;94687.38;5118919;28;20607;-66
2023/07/30 00:45:35;;;;;;;5.75;4.82;;;;;;;20.96;59.04;94693.69;5119048;28;20195;-66
2023/07/30 00:48:40;;;;;;;5.05;4.38;;;;;;;20.87;59.80;94694.25;5119062;28;20203;-66
2023/07/30 00:51:44;;;;;;;8.13;5.13;;;;;;;20.83;59.82;94701.94;5118483;28;20195;-66
2023/07/30 00:54:48;;;;;;;4.55;4.10;;;;;;;20.77;59.82;94693.25;5119266;28;20187;-66
2023/07/30 00:57:56;;;;;;;4.72;4.28;;;;;;;20.75;59.87;94692.06;5118681;28;20214;-66
2023/07/30 01:01:02;;;;;;;4.72;4.32;;;;;;;20.71;60.19;94694.16;5118610;28;20195;-66
2023/07/30 01:04:07;;;;;;;4.65;4.25;;;;;;;20.69;60.20;94694.56;5118613;28;20608;-66
2023/07/30 01:07:13;;;;;;;5.15;4.00;;;;;;;20.66;60.26;94701.03;5118215;28;20200;-66
2023/07/30 01:10:18;;;;;;;8.38;5.65;;;;;;;20.62;60.78;94703.88;5118049;28;20216;-66
2023/07/30 01:13:22;;;;;;;5.43;4.57;;;;;;;20.58;60.75;94705.97;5118312;28;20210;-66
2023/07/30 01:15:51;;;;;;;5.53;4.30;;;;;;;20.48;60.93;94711.72;5118287;28;20191;-66
2023/07/30 01:18:20;;;;;;;4.53;4.13;;;;;;;20.39;60.55;94701.06;5118091;28;20192;-66
2023/07/30 01:20:47;;;;;;;5.03;4.53;;;;;;;20.39;60.76;94701.06;5118498;28;20195;-66
2023/07/30 01:23:17;;;;;;;6.38;5.28;;;;;;;20.41;60.61;94710.63;5117798;28;20232;-66
2023/07/30 01:25:47;;;;;;;6.53;5.00;;;;;;;20.43;60.77;94713.78;5117781;28;20195;-66
2023/07/30 01:28:18;;;;;;;5.57;4.95;;;;;;;20.40;61.31;94697.81;5118156;28;20191;-66
2023/07/30 01:30:46;;;;;;;5.80;5.15;;;;;;;20.40;61.34;94705.44;5118257;28;20200;-66
2023/07/30 01:33:15;;;;;;;5.20;4.63;;;;;;;20.42;61.27;94706.59;5117964;28;20203;-66
2023/07/30 01:35:43;;;;;;;5.63;5.13;;;;;;;20.43;60.89;94705.38;5117445;28;20196;-66
2023/07/30 01:38:13;;;;;;;5.38;4.75;;;;;;;20.44;60.54;94706.97;5118465;28;20200;-66
2023/07/30 01:40:45;;;;;;;5.53;4.93;;;;;;;20.42;60.91;94714.22;5117984;28;20206;-66
2023/07/30 01:43:13;;;;;;;6.05;5.40;;;;;;;20.33;60.84;94719.56;5117748;28;20248;-66
2023/07/30 01:45:41;;;;;;;7.88;6.30;;;;;;;20.21;60.87;94712.53;5117858;28;20192;-66
2023/07/30 01:48:09;;;;;;;7.30;6.60;;;;;;;20.20;61.04;94710.97;5117597;28;20196;-66
2023/07/30 01:50:37;;;;;;;8.20;6.82;;;;;;;20.22;61.04;94708.53;5116986;28;20199;-66
2023/07/30 01:53:05;;;;;;;10.77;6.70;;;;;;;20.24;61.37;94714.50;5118485;28;20198;-66
2023/07/30 01:55:34;;;;;;;7.45;6.00;;;;;;;20.17;61.71;94714.63;5117595;28;20199;-66
2023/07/30 01:58:02;;;;;;;6.28;5.68;;;;;;;20.15;61.45;94719.84;5117492;28;20195;-66
2023/07/30 02:00:30;;;;;;;6.05;5.43;;;;;;;20.12;61.51;94721.50;5117244;28;20206;-66
2023/07/30 02:02:58;;;;;;;5.75;5.10;;;;;;;20.14;61.52;94713.44;5117555;28;20215;-66
2023/07/30 02:05:25;;;;;;;5.47;4.95;;;;;;;20.14;61.69;94718.25;5117317;28;20202;-66
2023/07/30 02:07:53;;;;;;;4.45;4.13;;;;;;;20.11;61.63;94724.69;5117110;28;20618;-66
2023/07/30 02:10:21;;;;;;;4.65;4.00;;;;;;;20.04;61.55;94720.00;5117390;28;20223;-66
2023/07/30 02:12:50;;;;;;;6.53;4.57;;;;;;;20.01;62.08;94722.84;5117255;28;20210;-66
2023/07/30 02:15:19;;;;;;;4.68;4.18;;;;;;;19.98;61.95;94721.69;5117222;28;20502;-66
2023/07/30 02:17:47;;;;;;;4.38;3.97;;;;;;;19.98;61.91;94718.13;5116788;28;20195;-66
2023/07/30 02:20:14;;;;;;;4.45;4.05;;;;;;;19.95;62.13;94733.75;5116713;28;20603;-66
2023/07/30 02:22:44;;;;;;;4.20;3.80;;;;;;;19.88;62.40;94728.25;5117080;28;20232;-66
2023/07/30 02:25:15;;;;;;;4.50;4.00;;;;;;;19.81;62.47;94726.31;5116926;28;20199;-66
2023/07/30 02:27:42;;;;;;;5.20;3.85;;;;;;;19.75;62.34;94733.59;5117072;28;20245;-66
2023/07/30 02:30:11;;;;;;;4.35;3.95;;;;;;;19.71;62.55;94733.66;5116959;28;20212;-66
2023/07/30 02:32:44;;;;;;;4.05;3.75;;;;;;;19.70;62.58;94734.88;5117002;28;20207;-66
2023/07/30 02:35:12;;;;;;;3.90;3.60;;;;;;;19.68;62.60;94730.91;5116470;28;20210;-66
2023/07/30 02:37:40;;;;;;;3.70;3.33;;;;;;;19.68;62.39;94728.09;5116342;28;20192;-66
2023/07/30 02:40:09;;;;;;;4.70;3.70;;;;;;;19.73;62.41;94736.03;5116535;28;20188;-66
2023/07/30 02:42:37;;;;;;;3.92;3.60;;;;;;;19.79;62.42;94731.56;5116368;28;20196;-66
2023/07/30 02:45:06;;;;;;;4.97;3.60;;;;;;;19.75;62.07;94739.19;5116561;28;20203;-66
2023/07/30 02:47:34;;;;;;;3.70;3.40;;;;;;;19.68;62.78;94740.09;5116493;28;20203;-66
2023/07/30 02:50:06;;;;;;;3.88;3.58;;;;;;;19.65;62.38;94735.34;5117126;28;20238;-66
2023/07/30 02:52:34;;;;;;;3.90;3.60;;;;;;;19.63;62.49;94740.56;5116389;28;20725;-66
2023/07/30 02:55:03;;;;;;;5.32;3.80;;;;;;;19.57;62.71;94736.63;5116087;28;20200;-66
2023/07/30 02:57:34;;;;;;;3.85;3.55;;;;;;;19.50;62.73;94739.50;5116027;28;20207;-66
2023/07/30 03:00:03;;;;;;;3.78;3.28;;;;;;;19.53;63.25;94735.84;5116349;28;20219;-66
2023/07/30 03:02:34;;;;;;;3.83;3.53;;;;;;;19.60;62.92;94735.75;5115236;28;20286;-66
2023/07/30 03:05:02;;;;;;;3.80;3.50;;;;;;;19.64;62.02;94735.75;5116114;28;20244;-66
2023/07/30 03:07:36;;;;;;;3.75;3.45;;;;;;;19.65;62.37;94742.94;5115848;28;20200;-66
2023/07/30 03:10:05;;;;;;;3.88;3.55;;;;;;;19.66;62.85;94742.53;5115987;28;20215;-66
2023/07/30 03:12:33;;;;;;;4.25;3.85;;;;;;;19.60;62.85;94741.34;5115752;28;20180;-66
2023/07/30 03:15:01;;;;;;;3.92;3.55;;;;;;;19.59;63.24;94745.38;5115623;28;20199;-66
2023/07/30 03:17:30;;;;;;;4.28;3.88;;;;;;;19.55;63.15;94747.44;5115704;28;20206;-66
2023/07/30 03:20:01;;;;;;;4.22;3.78;;;;;;;19.47;62.87;94738.34;5116281;28;20208;-66
2023/07/30 03:22:53;;;;;;;4.05;3.75;;;;;;;19.41;62.97;94737.22;5115432;28;20284;-66
2023/07/30 03:25:59;;;;;;;3.83;3.50;;;;;;;19.36;63.38;94734.88;5037517;28;20271;-66
2023/07/30 03:29:05;;;;;;;4.97;3.95;;;;;;;19.40;63.22;94726.44;5038042;28;20296;-66
2023/07/30 03:32:13;;;;;;;4.97;3.70;;;;;;;19.42;63.70;94738.78;5037314;28;20216;-66
2023/07/30 03:35:18;;;;;;;5.50;4.13;;;;;;;19.39;63.96;94739.66;5054099;28;20205;-66
2023/07/30 03:38:22;;;;;;;4.18;3.80;;;;;;;19.40;63.61;94737.63;5037220;28;20653;-66
2023/07/30 03:41:29;;;;;;;4.88;3.95;;;;;;;19.44;63.52;94746.78;5037424;28;20201;-66
2023/07/30 03:44:34;;;;;;;4.82;4.20;;;;;;;19.40;63.55;94737.63;5037617;28;20190;-66
2023/07/30 03:47:39;;;;;;;5.97;5.10;;;;;;;19.39;64.03;94738.81;5037386;28;20204;-66
2023/07/30 03:50:44;;;;;;;9.15;7.78;;;;;;;19.42;63.62;94741.56;5093290;28;20215;-66
2023/07/30 03:53:50;;;;;;;10.77;8.82;;;;;;;19.45;63.68;94746.34;5115154;28;20202;-66
2023/07/30 03:56:55;;;;;;;13.10;8.93;;;;;;;19.49;63.36;94758.28;5115183;28;20214;-66
2023/07/30 04:00:04;;;;;;;10.60;8.05;;;;;;;19.51;63.39;94762.69;5115177;28;20198;-66
2023/07/30 04:03:09;;;;;;;9.57;7.80;;;;;;;19.54;63.16;94751.44;5115703;28;20215;-66
2023/07/30 04:06:14;;;;;;;10.15;7.72;;;;;;;19.59;63.34;94752.97;5115687;28;20183;-66
2023/07/30 04:09:18;;;;;;;11.05;7.53;;;;;;;19.59;63.50;94755.78;5114838;28;20199;-67
2023/07/30 04:12:23;;;;;;;11.77;8.82;;;;;;;19.51;64.00;94763.47;5114898;28;20570;-66
2023/07/30 04:15:27;;;;;;;14.15;9.95;;;;;;;19.45;64.36;94756.75;5114785;28;20199;-66
2023/07/30 04:18:33;;;;;;;13.10;10.15;;;;;;;19.48;63.81;94767.88;5115115;28;20198;-66
2023/07/30 04:21:39;;;;;;;11.32;8.02;;;;;;;19.52;63.51;94762.25;5114905;28;20192;-67
2023/07/30 04:24:43;;;;;;;8.20;6.38;;;;;;;19.58;62.73;94768.19;5114612;28;20321;-66
2023/07/30 04:27:19;;;;;;;7.50;6.32;;;;;;;19.65;62.51;94768.13;5114666;28;20266;-66
2023/07/30 04:29:49;;;;;;;7.68;6.20;;;;;;;19.69;62.49;94761.25;5114693;28;20214;-66
2023/07/30 04:32:17;;;;;;;7.47;5.97;;;;;;;19.75;62.56;94769.19;5115219;28;20203;-67
2023/07/30 04:34:45;;;;;;;6.00;5.40;;;;;;;19.79;62.93;94764.34;5114711;28;20529;-66
2023/07/30 04:37:15;;;;;;;7.32;5.65;;;;;;;19.83;62.50;94762.31;5114718;28;20191;-66
2023/07/30 04:39:43;;;;;;;7.85;6.40;;;;;;;19.85;61.92;94762.66;5114590;28;20214;-66
2023/07/30 04:42:13;;;;;;;7.95;6.18;;;;;;;19.90;61.65;94768.59;5114909;28;20203;-66
2023/07/30 04:44:42;;;;;;;7.70;5.95;;;;;;;19.90;62.31;94773.41;5114546;28;20195;-66
2023/07/30 04:47:11;;;;;;;7.95;5.72;;;;;;;19.92;62.89;94770.97;5114401;28;20210;-66
2023/07/30 04:49:42;;;;;;;10.50;6.05;;;;;;;19.92;62.72;94774.53;5114132;28;20227;-66
2023/07/30 04:52:10;;;;;;;6.05;5.45;;;;;;;19.91;61.76;94777.78;5114810;28;20199;-66
2023/07/30 04:54:38;;;;;;;5.60;4.97;;;;;;;19.93;61.61;94772.53;5114539;28;20211;-66
2023/07/30 04:57:06;;;;;;;5.78;5.18;;;;;;;19.98;61.62;94774.88;5115226;28;20195;-66
2023/07/30 04:59:34;;;;;;;4.97;4.57;;;;;;;20.02;61.73;94772.03;5114408;28;20199;-66
2023/07/30 05:02:07;;;;;;;5.32;4.70;;;;;;;20.04;62.17;94767.59;5114356;28;20249;-66
2023/07/30 05:04:35;;;;;;;6.07;5.22;;;;;;;20.08;61.92;94770.31;5114898;28;20207;-66
2023/07/30 05:07:03;;;;;;;6.88;6.18;;;;;;;20.14;61.96;94771.44;5114464;28;20253;-66
2023/07/30 05:09:31;;;;;;;7.03;6.28;;;;;;;20.16;61.35;94769.81;5114126;28;20219;-66
2023/07/30 05:12:00;;;;;;;6.90;5.80;;;;;;;20.18;60.94;94763.78;5114468;28;20204;-66
2023/07/30 05:14:29;;;;;;;6.88;5.97;;;;;;;20.23;60.90;94765.34;5114177;28;20211;-66
2023/07/30 05:16:57;;;;;;;6.68;6.05;;;;;;;20.25;60.96;94762.91;5114437;28;20604;-66
2023/07/30 05:19:33;;;;;;;6.90;6.20;;;;;;;20.27;60.91;94766.88;5114220;28;20206;-66
2023/07/30 05:22:02;;;;;;;7.30;6.40;;;;;;;20.31;60.12;94767.59;5114546;28;20184;-66
2023/07/30 05:24:32;;;;;;;7.65;6.10;;;;;;;20.35;60.58;94765.53;5115118;28;20260;-66
2023/07/30 05:27:03;;;;;;;7.53;6.85;;;;;;;20.40;60.54;94769.84;5116962;28;20204;-66
2023/07/30 05:29:31;;;;;;;7.22;6.13;;;;;;;20.45;60.44;94761.00;5117511;28;20310;-66
2023/07/30 05:32:00;;;;;;;6.32;5.70;;;;;;;20.51;60.35;94766.91;5117801;28;20299;-67
2023/07/30 05:34:30;;;;;;;6.30;5.60;;;;;;;20.53;60.87;94762.50;5118046;28;20199;-66
2023/07/30 05:36:58;;;;;;;8.27;5.80;;;;;;;20.56;61.00;94766.47;5117590;28;20203;-66
2023/07/30 05:39:26;;;;;;;6.07;5.43;;;;;;;20.62;60.77;94767.53;5117945;28;20199;-66
2023/07/30 05:41:57;;;;;;;5.93;5.32;;;;;;;20.66;60.40;94774.69;5118250;28;20195;-66
2023/07/30 05:44:26;;;;;;;6.18;4.93;;;;;;;20.70;60.56;94768.22;5117919;28;20202;-66
2023/07/30 05:46:52;;;;;;;5.20;4.75;;;;;;;20.75;60.03;94765.72;5117429;28;20192;-66
2023/07/30 05:49:20;;;;;;;7.20;5.00;;;;;;;20.79;59.73;94771.28;5118422;28;20196;-66
2023/07/30 05:51:49;;;;;;;5.03;4.60;;;;;;;20.82;60.03;94774.00;5117360;28;20210;-66
2023/07/30 05:54:20;;;;;;;5.07;4.28;;;;;;;20.83;59.90;94775.59;5117878;28;20202;-66
2023/07/30 05:56:48;;;;;;;5.35;4.80;;;;;;;20.85;60.05;94772.38;5117659;28;20203;-66
2023/07/30 05:59:16;;;;;;;4.90;4.50;;;;;;;20.89;59.89;94778.72;5117518;28;20202;-66
2023/07/30 06:01:44;;;;;;;6.03;5.53;;;;;;;20.94;60.19;94775.41;5117165;28;20547;-66
2023/07/30 06:04:12;;;;;;;7.55;5.43;;;;;;;20.97;60.07;94776.56;5118199;28;20249;-66
2023/07/30 06:06:41;;;;;;;6.28;5.78;;;;;;;20.98;60.21;94776.13;5117039;28;20191;-66
2023/07/30 06:09:09;;;;;;;6.13;5.43;;;;;;;21.00;60.23;94779.31;5117364;28;20393;-66
2023/07/30 06:11:37;;;;;;;6.68;5.97;;;;;;;21.05;59.85;94783.63;5116802;28;20226;-66
2023/07/30 06:14:05;;;;;;;5.68;5.20;;;;;;;21.11;59.87;94782.72;5117719;28;20195;-66
2023/07/30 06:16:35;;;;;;;7.30;5.35;;;;;;;21.15;59.60;94777.03;5117204;28;20198;-66
2023/07/30 06:19:03;;;;;;;6.32;5.72;;;;;;;21.17;59.66;94780.22;5116932;28;20188;-66
2023/07/30 06:21:34;;;;;;;5.55;5.05;;;;;;;21.22;59.03;94779.72;5116983;28;20195;-66
2023/07/30 06:24:05;;;;;;;6.65;5.95;;;;;;;21.28;58.33;94780.00;5116506;28;20266;-66
2023/07/30 06:26:34;;;;;;;5.53;5.03;;;;;;;21.34;58.09;94776.31;5116887;28;20203;-66
2023/07/30 06:29:02;;;;;;;5.30;4.80;;;;;;;21.36;58.38;94771.06;5116741;28;20199;-66
2023/07/30 06:31:30;;;;;;;5.72;5.15;;;;;;;21.38;58.78;94770.63;5116566;28;20555;-66
2023/07/30 06:33:58;;;;;;;5.47;5.03;;;;;;;21.38;58.83;94771.41;5116545;28;20196;-66
2023/07/30 06:36:29;;;;;;;6.05;4.47;;;;;;;21.43;57.57;94770.13;5117244;28;20200;-66
2023/07/30 06:38:57;;;;;;;4.78;4.38;;;;;;;21.48;57.38;94766.03;5116857;28;20548;-66
2023/07/30 06:41:24;;;;;;;5.60;4.93;;;;;;;21.54;56.89;94764.31;5116447;28;20199;-66
2023/07/30 06:43:53;;;;;;;5.07;3.80;;;;;;;21.61;55.53;94759.34;5117616;28;20195;-66
2023/07/30 06:46:21;;;;;;;4.20;3.90;;;;;;;21.66;55.63;94752.44;5116741;28;20223;-66
2023/07/30 06:48:49;;;;;;;5.22;4.78;;;;;;;21.69;55.73;94751.56;5117275;28;20611;-66
2023/07/30 06:51:19;;;;;;;4.57;4.28;;;;;;;21.72;55.44;94747.91;5116512;28;20211;-66
2023/07/30 06:53:47;;;;;;;4.85;4.35;;;;;;;21.77;54.15;94749.41;5117373;28;20195;-66
2023/07/30 06:56:18;;;;;;;5.35;4.30;;;;;;;21.80;53.83;94745.75;5116438;28;20249;-66
2023/07/30 06:58:46;;;;;;;5.32;4.25;;;;;;;21.83;54.31;94742.84;5116945;28;20608;-66
2023/07/30 07:01:19;;;;;;;4.57;4.18;;;;;;;21.86;54.43;94749.63;5117168;28;20180;-66
2023/07/30 07:03:47;;;;;;;4.50;4.10;;;;;;;21.91;54.37;94739.91;5116363;28;20192;-66
2023/07/30 07:06:17;;;;;;;4.72;4.32;;;;;;;21.95;54.48;94741.38;5116408;28;20199;-66
2023/07/30 07:08:46;;;;;;;4.88;4.47;;;;;;;21.99;54.05;94739.28;5117159;28;20253;-66
2023/07/30 07:11:14;;;;;;;4.68;4.20;;;;;;;22.03;54.18;94737.19;5117045;28;20214;-66
2023/07/30 07:13:42;;;;;;;4.43;4.13;;;;;;;22.10;54.59;94728.59;5116048;28;20253;-66
2023/07/30 07:16:10;;;;;;;4.20;3.88;;;;;;;22.18;52.58;94728.47;5116253;28;20639;-66
2023/07/30 07:18:39;;;;;;;4.25;3.92;;;;;;;22.20;52.98;94729.63;5116691;28;20206;-66
2023/07/30 07:21:09;;;;;;;4.90;4.40;;;;;;;22.22;52.83;94726.38;5116873;28;20607;-66
2023/07/30 07:23:37;;;;;;;4.45;4.15;;;;;;;22.23;52.87;94720.34;5116651;28;20276;-66
2023/07/30 07:26:05;;;;;;;4.45;4.15;;;;;;;22.26;52.97;94719.47;5116375;28;20202;-66
2023/07/30 07:28:33;;;;;;;5.05;4.38;;;;;;;22.34;53.02;94722.88;5116653;28;20191;-66
2023/07/30 07:31:04;;;;;;;4.40;4.10;;;;;;;22.47;52.72;94708.91;5115278;28;20208;-66
2023/07/30 07:33:32;;;;;;;6.32;4.30;;;;;;;22.58;52.42;94707.41;5115423;28;20242;-66
2023/07/30 07:36:13;;;;;;;4.80;4.40;;;;;;;22.62;51.96;94706.53;5116687;28;20196;-66
2023/07/30 07:38:42;;;;;;;4.60;4.20;;;;;;;22.65;52.23;94706.47;5115642;28;20199;-66
2023/07/30 07:41:15;;;;;;;5.07;4.63;;;;;;;22.77;53.17;94702.16;5115715;28;20671;-66
2023/07/30 07:43:43;;;;;;;4.95;4.50;;;;;;;22.91;52.56;94707.38;5115526;28;20207;-66
2023/07/30 07:46:14;;;;;;;4.60;4.03;;;;;;;22.96;53.35;94706.13;5115612;28;20195;-66
2023/07/30 07:48:44;;;;;;;6.38;5.07;;;;;;;23.09;51.81;94709.75;5115095;28;20253;-66
2023/07/30 07:51:17;;;;;;;4.60;4.20;;;;;;;23.20;50.55;94707.47;5115511;28;20208;-66
2023/07/30 07:53:45;;;;;;;4.55;4.15;;;;;;;23.23;50.48;94703.75;5116299;28;20184;-66
2023/07/30 07:56:16;;;;;;;4.75;4.32;;;;;;;23.26;50.60;94696.44;5115349;28;20196;-66
2023/07/30 07:58:43;;;;;;;5.28;4.78;;;;;;;23.44;50.46;94705.19;5115374;28;20547;-66
2023/07/30 08:01:12;;;;;;;4.93;4.43;;;;;;;23.50;50.11;94702.63;5115336;28;20195;-66
2023/07/30 08:03:39;;;;;;;5.60;4.68;;;;;;;23.52;50.02;94700.91;5116015;28;20248;-66
2023/07/30 08:06:08;;;;;;;5.97;4.45;;;;;;;23.64;49.99;94692.94;5115473;28;20195;-66
2023/07/30 08:08:37;;;;;;;4.45;4.15;;;;;;;23.79;49.88;94696.97;5114943;28;20204;-66
2023/07/30 08:11:08;;;;;;;4.70;4.30;;;;;;;23.76;49.18;94681.75;5115887;28;20276;-66
2023/07/30 08:13:36;;;;;;;5.00;4.30;;;;;;;23.75;49.37;94685.03;5115973;28;20199;-66
2023/07/30 08:16:04;;;;;;;5.65;5.03;;;;;;;23.82;50.44;94682.00;5115805;28;20595;-66
2023/07/30 08:18:32;;;;;;;5.50;4.68;;;;;;;23.89;49.19;94681.75;5115050;28;20192;-66
2023/07/30 08:21:01;;;;;;;4.68;4.28;;;;;;;24.01;49.07;94692.25;5098278;28;20531;-66
2023/07/30 08:23:29;;;;;;;5.25;4.50;;;;;;;24.19;47.90;94683.25;5115240;28;20659;-66
2023/07/30 08:26:01;;;;;;;5.80;4.88;;;;;;;24.23;46.73;94681.13;5114808;28;20211;-66
2023/07/30 08:28:29;;;;;;;5.03;4.63;;;;;;;24.22;48.27;94682.38;5114936;28;20204;-66
2023/07/30 08:31:04;;;;;;;5.00;4.63;;;;;;;24.29;49.05;94677.72;5114691;28;20219;-66
2023/07/30 08:33:33;;;;;;;4.85;4.40;;;;;;;24.45;46.87;94684.06;5114666;28;20199;-66
2023/07/30 08:36:01;;;;;;;5.05;4.32;;;;;;;24.53;46.74;94673.34;5115712;28;20180;-66
2023/07/30 08:38:30;;;;;;;4.78;4.32;;;;;;;24.60;47.09;94663.84;5114900;28;20244;-66
2023/07/30 08:41:02;;;;;;;4.90;4.45;;;;;;;24.62;45.80;94658.53;5114912;28;20223;-66
2023/07/30 08:43:31;;;;;;;5.38;4.47;;;;;;;24.70;46.36;94660.69;5115511;28;20176;-66
2023/07/30 08:46:02;;;;;;;4.57;4.00;;;;;;;24.77;46.41;94656.03;5114596;28;20530;-66
2023/07/30 08:48:32;;;;;;;4.60;4.20;;;;;;;24.95;46.17;94654.16;5114668;28;20188;-66
2023/07/30 08:51:01;;;;;;;5.50;4.68;;;;;;;25.29;45.87;94661.06;5098071;28;20211;-66
2023/07/30 08:53:32;;;;;;;5.15;4.60;;;;;;;25.47;45.03;94659.63;5114674;28;20199;-66
2023/07/30 08:56:05;;;;;;;4.80;4.40;;;;;;;25.57;44.62;94656.41;5114736;28;20199;-66
2023/07/30 08:58:34;;;;;;;4.22;3.90;;;;;;;25.62;43.90;94655.00;5115401;28;20266;-66
2023/07/30 09:01:10;;;;;;;6.32;4.93;;;;;;;25.78;43.68;94651.16;5117450;28;20199;-66
2023/07/30 09:03:39;;;;;;;5.43;4.63;;;;;;;25.81;44.29;94650.28;5118242;28;20234;-66
2023/07/30 09:06:07;;;;;;;4.78;4.43;;;;;;;25.90;43.16;94639.81;5118569;28;20244;-66
2023/07/30 09:08:35;;;;;;;4.93;4.43;;;;;;;26.01;42.59;94644.28;5118505;28;20596;-66
2023/07/30 09:11:14;;;;;;;6.00;5.30;;;;;;;26.11;43.80;94637.41;5118016;28;20226;-66
2023/07/30 09:13:41;;;;;;;4.70;4.13;;;;;;;26.22;41.85;94637.75;5119236;28;20187;-66
2023/07/30 09:16:12;;;;;;;4.45;4.00;;;;;;;26.24;41.90;94646.56;5118570;28;20192;-66
2023/07/30 09:18:45;;;;;;;4.15;3.85;;;;;;;26.33;42.40;94646.59;5119175;28;20188;-66
2023/07/30 09:21:16;;;;;;;4.22;3.92;;;;;;;26.46;41.38;94631.53;5118363;28;20210;-66
2023/07/30 09:23:46;;;;;;;5.53;4.43;;;;;;;26.72;38.38;94637.75;5117624;28;20232;-66
2023/07/30 09:26:15;;;;;;;3.70;3.40;;;;;;;27.00;37.03;94638.56;5118275;28;20195;-66
2023/07/30 09:28:43;;;;;;;4.78;3.85;;;;;;;27.16;39.29;94638.28;5117867;28;20647;-66
2023/07/30 09:31:11;;;;;;;4.28;3.90;;;;;;;27.27;39.95;94632.16;5117779;28;20555;-66
2023/07/30 09:33:44;;;;;;;4.05;3.75;;;;;;;27.27;38.08;94635.78;5117836;28;20227;-67
2023/07/30 09:36:12;;;;;;;3.72;3.35;;;;;;;27.31;36.96;94630.75;5117743;28;20207;-66
2023/07/30 09:38:43;;;;;;;4.45;4.13;;;;;;;27.47;38.56;94629.63;5118863;28;20199;-66
2023/07/30 09:41:13;;;;;;;4.43;3.95;;;;;;;27.69;37.31;94618.09;5118074;28;20215;-66
2023/07/30 09:43:44;;;;;;;4.32;4.03;;;;;;;27.89;37.10;94614.78;5117747;28;20192;-66
2023/07/30 09:46:12;;;;;;;4.45;4.05;;;;;;;28.10;36.22;94612.94;5117799;28;20291;-66
2023/07/30 09:48:40;;;;;;;6.50;4.10;;;;;;;28.38;35.71;94613.63;5118794;28;20183;-66
2023/07/30 09:51:09;;;;;;;4.25;3.85;;;;;;;28.55;35.53;94605.53;5117346;28;20216;-66
2023/07/30 09:53:37;;;;;;;4.43;4.05;;;;;;;28.60;35.87;94606.91;5117789;28;20191;-66
2023/07/30 09:56:07;;;;;;;4.50;4.20;;;;;;;28.63;35.00;94612.41;5117674;28;20196;-66
2023/07/30 09:58:36;;;;;;;4.65;4.25;;;;;;;28.68;34.38;94606.06;5117803;28;20203;-66
2023/07/30 10:01:06;;;;;;;4.97;4.40;;;;;;;28.70;35.16;94597.06;5117556;28;20207;-66
2023/07/30 10:03:36;;;;;;;4.57;4.18;;;;;;;28.69;34.61;94593.44;5117453;28;20225;-66
2023/07/30 10:06:07;;;;;;;4.60;4.20;;;;;;;28.81;34.64;94591.63;5117761;28;20188;-66
2023/07/30 10:08:41;;;;;;;4.40;4.10;;;;;;;28.88;35.44;94585.59;5118298;28;20606;-66
2023/07/30 10:11:10;;;;;;;5.05;4.55;;;;;;;28.96;35.20;94581.09;5116660;28;20219;-66
2023/07/30 10:13:41;;;;;;;4.90;4.50;;;;;;;29.02;35.01;94576.34;5117857;28;20203;-66
2023/07/30 10:16:14;;;;;;;4.20;3.90;;;;;;;29.12;33.44;94576.25;5117508;28;20196;-66
2023/07/30 10:18:43;;;;;;;4.38;4.07;;;;;;;29.24;36.24;94575.22;5116851;28;20275;-66
2023/07/30 10:21:25;;;;;;;4.60;4.20;;;;;;;29.29;34.29;94568.84;5117730;28;20318;-67
2023/07/30 10:24:00;;;;;;;4.05;3.75;;;;;;;29.36;35.22;94567.69;5117148;28;20233;-67
2023/07/30 10:26:29;;;;;;;4.32;3.92;;;;;;;29.38;32.39;94563.09;5117022;28;20222;-67
2023/07/30 10:29:13;;;;;;;3.95;3.65;;;;;;;29.31;32.75;94562.72;5117860;28;20324;-67
2023/07/30 10:31:42;;;;;;;3.97;3.67;;;;;;;29.30;33.35;94561.91;5117612;28;20211;-66
2023/07/30 10:34:11;;;;;;;6.60;5.03;;;;;;;29.35;35.44;94552.72;5117513;28;20614;-67
2023/07/30 10:36:45;;;;;;;4.60;4.20;;;;;;;29.61;33.70;94552.16;5117711;28;20187;-67
2023/07/30 10:39:15;;;;;;;4.65;4.20;;;;;;;29.76;32.16;94541.56;5116781;28;20192;-67
2023/07/30 10:41:46;;;;;;;4.53;4.13;;;;;;;29.78;32.30;94546.75;5116702;28;20194;-67
2023/07/30 10:44:27;;;;;;;4.40;4.00;;;;;;;29.76;32.94;94532.25;5117509;28;20202;-67
2023/07/30 10:47:03;;;;;;;5.00;4.47;;;;;;;29.73;32.34;94531.19;5116356;28;20191;-67
2023/07/30 10:49:34;;;;;;;4.78;4.38;;;;;;;29.79;32.52;94531.28;5116444;28;20210;-67
2023/07/30 10:52:05;;;;;;;4.68;4.28;;;;;;;29.82;33.63;94528.25;5116095;28;20215;-66
2023/07/30 10:54:34;;;;;;;4.78;4.32;;;;;;;29.92;34.07;94520.34;5117115;28;20231;-66
2023/07/30 10:57:02;;;;;;;4.65;4.25;;;;;;;30.09;33.12;94521.41;5116541;28;20202;-66
2023/07/30 10:59:36;;;;;;;4.97;4.57;;;;;;;30.17;32.13;94514.03;5116939;28;20188;-67
2023/07/30 11:02:12;;;;;;;5.50;4.93;;;;;;;30.18;32.23;94507.09;5116320;28;20572;-66
2023/07/30 11:04:38;;;;;;;4.65;4.25;;;;;;;30.35;32.25;94498.78;5116591;28;20217;-67
2023/07/30 11:07:06;;;;;;;5.35;4.95;;;;;;;30.52;31.40;94501.88;5116900;28;20188;-67
2023/07/30 11:09:34;;;;;;;5.38;4.90;;;;;;;30.60;30.87;94494.47;5116902;28;20198;-67
2023/07/30 11:12:05;;;;;;;4.80;4.25;;;;;;;30.54;30.28;94501.34;5116145;28;20226;-67
2023/07/30 11:14:36;;;;;;;4.90;4.40;;;;;;;30.46;31.48;94486.78;5116120;28;20207;-66
2023/07/30 11:17:04;;;;;;;5.88;4.88;;;;;;;30.52;31.86;94486.84;5117185;28;20256;-66
2023/07/30 11:19:44;;;;;;;5.13;4.72;;;;;;;30.62;31.60;94480.53;5115840;28;20200;-67
2023/07/30 11:22:14;;;;;;;4.72;4.32;;;;;;;30.67;31.20;94484.72;5115785;28;20195;-67
2023/07/30 11:24:41;;;;;;;5.03;4.43;;;;;;;30.70;30.39;94478.81;5114941;28;20204;-67
2023/07/30 11:27:10;;;;;;;5.07;4.57;;;;;;;30.71;30.34;94490.97;5115881;28;20577;-67
2023/07/30 11:29:41;;;;;;;5.20;4.80;;;;;;;30.66;30.41;94481.09;5116556;28;20214;-67
2023/07/30 11:32:08;;;;;;;5.28;4.88;;;;;;;30.64;30.32;94474.31;5115796;28;20243;-67
2023/07/30 11:34:39;;;;;;;5.40;5.00;;;;;;;30.66;31.15;94468.94;5116766;28;20176;-67
2023/07/30 11:37:09;;;;;;;4.78;4.47;;;;;;;30.70;31.10;94467.41;5115864;28;20200;-66
2023/07/30 11:39:37;;;;;;;4.72;4.35;;;;;;;30.72;31.54;94463.28;5116173;27;20591;-66
2023/07/30 11:42:07;;;;;;;5.28;4.88;;;;;;;30.84;30.57;94462.94;5116203;28;20188;-66
2023/07/30 11:44:41;;;;;;;6.03;5.43;;;;;;;30.85;30.59;94453.13;5115112;28;20192;-66
2023/07/30 11:47:10;;;;;;;5.97;5.45;;;;;;;30.87;29.43;94459.09;5115244;28;20196;-66
2023/07/30 11:49:41;;;;;;;5.30;4.90;;;;;;;30.90;30.27;94443.88;5114990;28;20200;-66
2023/07/30 11:52:13;;;;;;;5.72;5.22;;;;;;;30.99;30.49;94445.75;5115396;28;20227;-66
2023/07/30 11:54:41;;;;;;;5.15;4.65;;;;;;;31.03;30.18;94443.47;5115951;28;20184;-66
2023/07/30 11:57:09;;;;;;;4.90;4.50;;;;;;;31.04;30.23;94433.63;5115396;28;20196;-66
2023/07/30 11:59:39;;;;;;;5.20;4.60;;;;;;;31.08;31.60;94430.56;5114828;28;20187;-66
2023/07/30 12:02:10;;;;;;;4.95;4.55;;;;;;;31.16;31.02;94431.69;5115588;28;20206;-66
2023/07/30 12:04:51;;;;;;;5.93;5.45;;;;;;;31.25;29.40;94433.56;5115122;28;20282;-66
2023/07/30 12:07:23;;;;;;;5.07;4.68;;;;;;;31.23;29.27;94417.00;5115141;28;20191;-66
2023/07/30 12:09:50;;;;;;;5.43;4.93;;;;;;;31.21;30.34;94415.94;5114858;28;20196;-66